sensor_id;sensor_type;location;lat;lon;timestamp;pressure;altitude;pressure_sealevel;temperature;humidity
30935;BME280;51033;42.648;23.292;2023-02-18T00:00:18;94556.91;;;4.95;42.21
30935;BME280;51033;42.648;23.292;2023-02-18T00:02:45;94574.88;;;5.08;42.25
30935;BME280;51033;42.648;23.292;2023-02-18T00:05:11;94556.91;;;5.00;42.32
30935;BME280;51033;42.648;23.292;2023-02-18T00:07:38;94539.22;;;4.85;42.45
30935;BME280;51033;42.648;23.292;2023-02-18T00:10:06;94563.47;;;4.87;42.42
30935;BME280;51033;42.648;23.292;2023-02-18T00:12:32;94547.03;;;4.65;42.60
30935;BME280;51033;42.648;23.292;2023-02-18T00:14:57;94549.75;;;4.80;42.73
30935;BME280;51033;42.648;23.292;2023-02-18T00:17:23;94551.31;;;4.76;42.42
30935;BME280;51033;42.648;23.292;2023-02-18T00:19:49;94527.34;;;4.20;43.55
30935;BME280;51033;42.648;23.292;2023-02-18T00:22:14;94553.34;;;4.54;43.30
30935;BME280;51033;42.648;23.292;2023-02-18T00:24:40;94533.09;;;4.59;43.00
30935;BME280;51033;42.648;23.292;2023-02-18T00:27:05;94531.28;;;4.75;42.76
30935;BME280;51033;42.648;23.292;2023-02-18T00:29:31;94512.28;;;4.63;42.76
30935;BME280;51033;42.648;23.292;2023-02-18T00:31:57;94521.50;;;4.65;42.88
30935;BME280;51033;42.648;23.292;2023-02-18T00:34:23;94518.88;;;4.76;42.70
30935;BME280;51033;42.648;23.292;2023-02-18T00:36:48;94510.72;;;4.77;42.70
30935;BME280;51033;42.648;23.292;2023-02-18T00:39:14;94510.69;;;4.62;42.79
30935;BME280;51033;42.648;23.292;2023-02-18T00:41:39;94494.81;;;4.47;43.39
30935;BME280;51033;42.648;23.292;2023-02-18T00:44:05;94515.44;;;4.65;42.97
30935;BME280;51033;42.648;23.292;2023-02-18T00:46:31;94505.97;;;4.17;43.75
30935;BME280;51033;42.648;23.292;2023-02-18T00:48:56;94492.03;;;4.21;44.08
30935;BME280;51033;42.648;23.292;2023-02-18T00:51:22;94520.16;;;4.58;43.26
30935;BME280;51033;42.648;23.292;2023-02-18T00:53:49;94492.44;;;4.35;43.11
30935;BME280;51033;42.648;23.292;2023-02-18T00:56:14;94519.63;;;4.56;43.15
30935;BME280;51033;42.648;23.292;2023-02-18T00:58:40;94498.47;;;4.41;43.41
30935;BME280;51033;42.648;23.292;2023-02-18T01:01:06;94500.94;;;4.05;44.14
30935;BME280;51033;42.648;23.292;2023-02-18T01:03:32;94506.22;;;4.10;44.62
30935;BME280;51033;42.648;23.292;2023-02-18T01:05:57;94515.09;;;4.46;43.69
30935;BME280;51033;42.648;23.292;2023-02-18T01:08:23;94475.72;;;4.19;43.85
30935;BME280;51033;42.648;23.292;2023-02-18T01:10:51;94515.41;;;4.50;43.38
30935;BME280;51033;42.648;23.292;2023-02-18T01:13:17;94501.97;;;4.61;43.27
30935;BME280;51033;42.648;23.292;2023-02-18T01:15:42;94513.91;;;4.79;42.81
30935;BME280;51033;42.648;23.292;2023-02-18T01:18:08;94500.56;;;4.34;43.41
30935;BME280;51033;42.648;23.292;2023-02-18T01:20:35;94513.91;;;4.22;43.76
30935;BME280;51033;42.648;23.292;2023-02-18T01:23:02;94503.41;;;4.27;43.36
30935;BME280;51033;42.648;23.292;2023-02-18T01:25:27;94487.88;;;4.25;44.02
30935;BME280;51033;42.648;23.292;2023-02-18T01:27:53;94481.09;;;4.35;43.45
30935;BME280;51033;42.648;23.292;2023-02-18T01:30:18;94505.41;;;4.57;42.66
30935;BME280;51033;42.648;23.292;2023-02-18T01:32:45;94500.09;;;4.52;42.86
30935;BME280;51033;42.648;23.292;2023-02-18T01:35:13;94497.50;;;4.57;42.94
30935;BME280;51033;42.648;23.292;2023-02-18T01:37:39;94500.69;;;4.59;43.05
30935;BME280;51033;42.648;23.292;2023-02-18T01:40:06;94473.75;;;4.47;42.97
30935;BME280;51033;42.648;23.292;2023-02-18T01:42:31;94490.41;;;4.67;42.59
30935;BME280;51033;42.648;23.292;2023-02-18T01:48:44;94511.09;;;3.92;44.45
30935;BME280;51033;42.648;23.292;2023-02-18T01:51:16;94527.66;;;3.87;44.84
30935;BME280;51033;42.648;23.292;2023-02-18T01:53:48;94521.47;;;4.08;44.41
30935;BME280;51033;42.648;23.292;2023-02-18T01:56:28;94483.84;;;4.13;44.27
30935;BME280;51033;42.648;23.292;2023-02-18T01:58:59;94524.34;;;3.65;44.77
30935;BME280;51033;42.648;23.292;2023-02-18T02:01:26;94520.81;;;3.49;45.18
30935;BME280;51033;42.648;23.292;2023-02-18T02:03:52;94530.84;;;3.89;44.85
30935;BME280;51033;42.648;23.292;2023-02-18T02:06:20;94535.28;;;2.44;47.53
30935;BME280;51033;42.648;23.292;2023-02-18T02:08:46;94548.03;;;3.06;46.84
30935;BME280;51033;42.648;23.292;2023-02-18T02:13:58;94528.06;;;3.69;45.50
30935;BME280;51033;42.648;23.292;2023-02-18T02:19:03;94507.72;;;3.91;44.46
30935;BME280;51033;42.648;23.292;2023-02-18T02:22:20;94522.53;;;4.07;44.10
30935;BME280;51033;42.648;23.292;2023-02-18T02:27:25;94496.22;;;4.12;43.84
30935;BME280;51033;42.648;23.292;2023-02-18T02:30:12;94499.16;;;3.74;44.32
30935;BME280;51033;42.648;23.292;2023-02-18T02:33:18;94475.47;;;3.74;44.48
30935;BME280;51033;42.648;23.292;2023-02-18T02:36:04;94511.31;;;3.80;44.77
30935;BME280;51033;42.648;23.292;2023-02-18T02:38:39;94492.50;;;4.03;43.79
30935;BME280;51033;42.648;23.292;2023-02-18T02:43:55;94488.38;;;3.38;45.56
30935;BME280;51033;42.648;23.292;2023-02-18T02:46:31;94473.19;;;3.46;45.60
30935;BME280;51033;42.648;23.292;2023-02-18T02:49:12;94480.88;;;3.94;44.56
30935;BME280;51033;42.648;23.292;2023-02-18T02:51:47;94477.25;;;4.05;44.05
30935;BME280;51033;42.648;23.292;2023-02-18T02:56:41;94485.38;;;4.04;44.13
30935;BME280;51033;42.648;23.292;2023-02-18T02:59:11;94498.88;;;4.17;43.89
30935;BME280;51033;42.648;23.292;2023-02-18T03:08:08;94515.34;;;4.35;43.60
30935;BME280;51033;42.648;23.292;2023-02-18T03:10:55;94484.38;;;4.10;43.31
30935;BME280;51033;42.648;23.292;2023-02-18T03:18:46;94514.44;;;4.19;44.12
30935;BME280;51033;42.648;23.292;2023-02-18T03:21:22;94507.78;;;4.11;43.99
30935;BME280;51033;42.648;23.292;2023-02-18T03:23:57;94503.56;;;4.05;43.89
30935;BME280;51033;42.648;23.292;2023-02-18T03:26:26;94497.00;;;4.13;44.11
30935;BME280;51033;42.648;23.292;2023-02-18T03:28:54;94469.84;;;4.02;43.71
30935;BME280;51033;42.648;23.292;2023-02-18T03:31:25;94518.94;;;4.28;43.58
30935;BME280;51033;42.648;23.292;2023-02-18T03:33:58;94510.44;;;4.16;43.75
30935;BME280;51033;42.648;23.292;2023-02-18T03:36:25;94535.34;;;4.41;43.46
30935;BME280;51033;42.648;23.292;2023-02-18T03:39:04;94527.03;;;3.06;45.92
30935;BME280;51033;42.648;23.292;2023-02-18T03:41:31;94536.97;;;3.63;45.10
30935;BME280;51033;42.648;23.292;2023-02-18T03:44:00;94552.78;;;4.05;44.36
30935;BME280;51033;42.648;23.292;2023-02-18T03:46:27;94559.09;;;4.04;44.38
30935;BME280;51033;42.648;23.292;2023-02-18T03:48:55;94558.78;;;3.95;44.28
30935;BME280;51033;42.648;23.292;2023-02-18T03:51:21;94559.94;;;4.09;43.96
30935;BME280;51033;42.648;23.292;2023-02-18T03:53:46;94558.88;;;4.10;44.33
30935;BME280;51033;42.648;23.292;2023-02-18T03:56:12;94545.59;;;3.90;44.23
30935;BME280;51033;42.648;23.292;2023-02-18T03:58:38;94552.31;;;4.13;44.19
30935;BME280;51033;42.648;23.292;2023-02-18T04:01:03;94555.75;;;4.18;44.04
30935;BME280;51033;42.648;23.292;2023-02-18T04:03:29;94526.97;;;4.07;43.94
30935;BME280;51033;42.648;23.292;2023-02-18T04:05:55;94526.09;;;3.86;44.49
30935;BME280;51033;42.648;23.292;2023-02-18T04:08:21;94534.75;;;3.81;44.59
30935;BME280;51033;42.648;23.292;2023-02-18T04:10:46;94534.44;;;3.78;45.33
30935;BME280;51033;42.648;23.292;2023-02-18T04:13:12;94534.03;;;3.91;44.62
30935;BME280;51033;42.648;23.292;2023-02-18T04:15:37;94532.28;;;3.70;45.28
30935;BME280;51033;42.648;23.292;2023-02-18T04:18:03;94530.66;;;3.64;45.44
30935;BME280;51033;42.648;23.292;2023-02-18T04:20:28;94528.03;;;3.64;45.05
30935;BME280;51033;42.648;23.292;2023-02-18T04:22:54;94507.25;;;3.67;45.26
30935;BME280;51033;42.648;23.292;2023-02-18T04:25:19;94494.91;;;3.68;44.91
30935;BME280;51033;42.648;23.292;2023-02-18T04:27:45;94501.28;;;3.40;45.68
30935;BME280;51033;42.648;23.292;2023-02-18T04:30:11;94515.50;;;3.76;45.33
30935;BME280;51033;42.648;23.292;2023-02-18T04:32:36;94514.97;;;3.79;45.30
30935;BME280;51033;42.648;23.292;2023-02-18T04:35:02;94495.41;;;3.65;45.49
30935;BME280;51033;42.648;23.292;2023-02-18T04:37:28;94510.75;;;3.78;45.35
30935;BME280;51033;42.648;23.292;2023-02-18T04:39:53;94496.53;;;3.74;45.15
30935;BME280;51033;42.648;23.292;2023-02-18T04:42:19;94512.09;;;3.80;45.28
30935;BME280;51033;42.648;23.292;2023-02-18T04:44:47;94518.56;;;3.68;45.51
30935;BME280;51033;42.648;23.292;2023-02-18T04:47:12;94504.19;;;3.75;45.53
30935;BME280;51033;42.648;23.292;2023-02-18T04:49:38;94502.59;;;3.74;45.15
30935;BME280;51033;42.648;23.292;2023-02-18T04:52:03;94530.69;;;4.06;44.64
30935;BME280;51033;42.648;23.292;2023-02-18T04:54:29;94517.22;;;2.75;46.83
30935;BME280;51033;42.648;23.292;2023-02-18T04:56:54;94496.84;;;3.14;46.42
30935;BME280;51033;42.648;23.292;2023-02-18T04:59:20;94518.09;;;3.39;45.93
30935;BME280;51033;42.648;23.292;2023-02-18T05:01:45;94503.50;;;3.58;45.19
30935;BME280;51033;42.648;23.292;2023-02-18T05:04:10;94499.09;;;3.64;45.13
30935;BME280;51033;42.648;23.292;2023-02-18T05:06:36;94514.19;;;3.42;46.11
30935;BME280;51033;42.648;23.292;2023-02-18T05:09:04;94547.44;;;2.50;47.75
30935;BME280;51033;42.648;23.292;2023-02-18T05:11:29;94530.00;;;2.66;47.53
30935;BME280;51033;42.648;23.292;2023-02-18T05:13:55;94574.19;;;3.18;46.81
30935;BME280;51033;42.648;23.292;2023-02-18T05:16:20;94550.81;;;3.21;46.79
30935;BME280;51033;42.648;23.292;2023-02-18T05:18:46;94553.97;;;3.50;46.35
30935;BME280;51033;42.648;23.292;2023-02-18T05:21:11;94510.81;;;3.46;46.15
30935;BME280;51033;42.648;23.292;2023-02-18T05:23:36;94515.78;;;3.79;45.34
30935;BME280;51033;42.648;23.292;2023-02-18T05:26:02;94512.88;;;3.76;45.27
30935;BME280;51033;42.648;23.292;2023-02-18T05:28:28;94511.16;;;2.47;48.09
30935;BME280;51033;42.648;23.292;2023-02-18T05:30:53;94515.38;;;2.48;48.75
30935;BME280;51033;42.648;23.292;2023-02-18T05:33:19;94497.66;;;2.17;49.49
30935;BME280;51033;42.648;23.292;2023-02-18T05:35:44;94517.28;;;2.80;48.21
30935;BME280;51033;42.648;23.292;2023-02-18T05:38:10;94483.88;;;3.02;47.68
30935;BME280;51033;42.648;23.292;2023-02-18T05:40:36;94498.25;;;3.21;47.16
30935;BME280;51033;42.648;23.292;2023-02-18T05:43:01;94516.44;;;3.28;47.09
30935;BME280;51033;42.648;23.292;2023-02-18T05:45:27;94517.84;;;3.40;46.80
30935;BME280;51033;42.648;23.292;2023-02-18T05:47:52;94526.41;;;2.72;48.10
30935;BME280;51033;42.648;23.292;2023-02-18T05:50:18;94523.94;;;3.14;47.79
30935;BME280;51033;42.648;23.292;2023-02-18T05:52:43;94521.34;;;3.19;47.75
30935;BME280;51033;42.648;23.292;2023-02-18T05:55:09;94527.38;;;3.47;47.01
30935;BME280;51033;42.648;23.292;2023-02-18T05:57:34;94548.13;;;3.75;46.27
30935;BME280;51033;42.648;23.292;2023-02-18T05:59:59;94525.84;;;3.51;46.56
30935;BME280;51033;42.648;23.292;2023-02-18T06:02:25;94539.38;;;2.79;49.02
30935;BME280;51033;42.648;23.292;2023-02-18T06:04:50;94540.69;;;2.81;48.31
30935;BME280;51033;42.648;23.292;2023-02-18T06:07:16;94542.78;;;3.06;48.07
30935;BME280;51033;42.648;23.292;2023-02-18T06:09:41;94539.03;;;3.29;47.41
30935;BME280;51033;42.648;23.292;2023-02-18T06:12:06;94549.09;;;3.69;46.89
30935;BME280;51033;42.648;23.292;2023-02-18T06:14:32;94553.16;;;3.81;46.31
30935;BME280;51033;42.648;23.292;2023-02-18T06:16:57;94545.56;;;3.85;46.28
30935;BME280;51033;42.648;23.292;2023-02-18T06:19:22;94553.69;;;3.47;47.24
30935;BME280;51033;42.648;23.292;2023-02-18T06:21:48;94544.09;;;3.67;46.68
30935;BME280;51033;42.648;23.292;2023-02-18T06:24:13;94513.13;;;3.74;46.59
30935;BME280;51033;42.648;23.292;2023-02-18T06:26:41;94540.91;;;4.02;46.31
30935;BME280;51033;42.648;23.292;2023-02-18T06:29:07;94542.19;;;4.37;46.06
30935;BME280;51033;42.648;23.292;2023-02-18T06:31:32;94522.47;;;4.02;46.14
30935;BME280;51033;42.648;23.292;2023-02-18T06:33:57;94539.03;;;4.35;45.61
30935;BME280;51033;42.648;23.292;2023-02-18T06:36:23;94509.50;;;4.33;45.38
30935;BME280;51033;42.648;23.292;2023-02-18T06:38:48;94486.28;;;4.24;45.03
30935;BME280;51033;42.648;23.292;2023-02-18T06:41:14;94506.03;;;4.84;43.89
30935;BME280;51033;42.648;23.292;2023-02-18T06:43:39;94502.91;;;5.07;44.22
30935;BME280;51033;42.648;23.292;2023-02-18T06:46:05;94522.94;;;5.03;44.88
30935;BME280;51033;42.648;23.292;2023-02-18T06:48:31;94531.84;;;4.82;44.90
30935;BME280;51033;42.648;23.292;2023-02-18T06:50:57;94507.19;;;4.41;45.30
30935;BME280;51033;42.648;23.292;2023-02-18T06:53:22;94523.63;;;4.68;45.61
30935;BME280;51033;42.648;23.292;2023-02-18T06:55:48;94516.47;;;4.54;45.96
30935;BME280;51033;42.648;23.292;2023-02-18T06:58:14;94532.88;;;4.81;45.66
30935;BME280;51033;42.648;23.292;2023-02-18T07:00:40;94533.38;;;4.73;45.91
30935;BME280;51033;42.648;23.292;2023-02-18T07:03:06;94490.66;;;4.61;46.06
30935;BME280;51033;42.648;23.292;2023-02-18T07:05:31;94478.22;;;4.46;46.54
30935;BME280;51033;42.648;23.292;2023-02-18T07:07:57;94526.81;;;4.81;45.66
30935;BME280;51033;42.648;23.292;2023-02-18T07:10:22;94530.56;;;5.00;45.55
30935;BME280;51033;42.648;23.292;2023-02-18T07:12:48;94530.59;;;5.15;45.79
30935;BME280;51033;42.648;23.292;2023-02-18T07:15:14;94513.47;;;5.18;45.38
30935;BME280;51033;42.648;23.292;2023-02-18T07:17:39;94478.63;;;5.05;46.17
30935;BME280;51033;42.648;23.292;2023-02-18T07:20:06;94492.34;;;5.07;45.71
30935;BME280;51033;42.648;23.292;2023-02-18T07:22:31;94480.69;;;4.68;46.79
30935;BME280;51033;42.648;23.292;2023-02-18T07:24:57;94488.09;;;4.86;46.15
30935;BME280;51033;42.648;23.292;2023-02-18T07:27:22;94508.59;;;4.12;48.16
30935;BME280;51033;42.648;23.292;2023-02-18T07:29:48;94503.94;;;3.82;48.90
30935;BME280;51033;42.648;23.292;2023-02-18T07:32:16;94507.63;;;3.81;49.40
30935;BME280;51033;42.648;23.292;2023-02-18T07:34:41;94520.38;;;4.51;48.12
30935;BME280;51033;42.648;23.292;2023-02-18T07:37:07;94522.19;;;3.25;49.78
30935;BME280;51033;42.648;23.292;2023-02-18T07:39:43;94530.50;;;3.44;50.47
30935;BME280;51033;42.648;23.292;2023-02-18T07:42:12;94533.38;;;4.21;48.80
30935;BME280;51033;42.648;23.292;2023-02-18T07:44:38;94549.81;;;4.33;47.65
30935;BME280;51033;42.648;23.292;2023-02-18T07:47:05;94558.84;;;3.68;49.11
30935;BME280;51033;42.648;23.292;2023-02-18T07:49:31;94559.84;;;3.99;48.76
30935;BME280;51033;42.648;23.292;2023-02-18T07:51:57;94571.09;;;3.90;48.79
30935;BME280;51033;42.648;23.292;2023-02-18T07:54:23;94558.00;;;3.63;49.02
30935;BME280;51033;42.648;23.292;2023-02-18T07:56:48;94551.81;;;3.79;48.57
30935;BME280;51033;42.648;23.292;2023-02-18T07:59:14;94567.97;;;3.56;48.68
30935;BME280;51033;42.648;23.292;2023-02-18T08:01:40;94548.81;;;3.33;48.77
30935;BME280;51033;42.648;23.292;2023-02-18T08:04:06;94531.72;;;3.68;47.91
30935;BME280;51033;42.648;23.292;2023-02-18T08:06:37;94537.97;;;3.94;47.70
30935;BME280;51033;42.648;23.292;2023-02-18T08:09:04;94508.25;;;3.98;46.83
30935;BME280;51033;42.648;23.292;2023-02-18T08:11:29;94522.06;;;4.15;46.67
30935;BME280;51033;42.648;23.292;2023-02-18T08:13:55;94528.94;;;3.79;47.41
30935;BME280;51033;42.648;23.292;2023-02-18T08:16:21;94541.16;;;3.96;47.31
30935;BME280;51033;42.648;23.292;2023-02-18T08:18:47;94530.28;;;3.87;47.22
30935;BME280;51033;42.648;23.292;2023-02-18T08:21:14;94554.88;;;4.45;46.51
30935;BME280;51033;42.648;23.292;2023-02-18T08:23:40;94536.16;;;4.41;46.58
30935;BME280;51033;42.648;23.292;2023-02-18T08:26:06;94521.56;;;4.23;46.84
30935;BME280;51033;42.648;23.292;2023-02-18T08:28:32;94516.41;;;4.44;46.53
30935;BME280;51033;42.648;23.292;2023-02-18T08:30:58;94527.16;;;4.32;47.17
30935;BME280;51033;42.648;23.292;2023-02-18T08:33:24;94510.72;;;4.77;47.06
30935;BME280;51033;42.648;23.292;2023-02-18T08:35:51;94498.38;;;4.83;45.61
30935;BME280;51033;42.648;23.292;2023-02-18T08:38:17;94511.94;;;4.44;46.45
30935;BME280;51033;42.648;23.292;2023-02-18T08:40:46;94467.63;;;4.31;45.97
30935;BME280;51033;42.648;23.292;2023-02-18T08:43:12;94499.28;;;4.46;45.89
30935;BME280;51033;42.648;23.292;2023-02-18T08:45:38;94499.84;;;4.48;45.49
30935;BME280;51033;42.648;23.292;2023-02-18T08:48:08;94504.69;;;4.82;45.33
30935;BME280;51033;42.648;23.292;2023-02-18T08:50:34;94503.97;;;5.17;44.32
30935;BME280;51033;42.648;23.292;2023-02-18T08:52:59;94522.66;;;5.05;43.97
30935;BME280;51033;42.648;23.292;2023-02-18T08:55:28;94526.03;;;4.85;43.47
30935;BME280;51033;42.648;23.292;2023-02-18T08:57:54;94504.66;;;4.77;43.80
30935;BME280;51033;42.648;23.292;2023-02-18T09:00:19;94531.94;;;5.28;43.28
30935;BME280;51033;42.648;23.292;2023-02-18T09:02:45;94528.78;;;5.36;42.26
30935;BME280;51033;42.648;23.292;2023-02-18T09:05:12;94508.19;;;5.78;41.74
30935;BME280;51033;42.648;23.292;2023-02-18T09:07:37;94543.00;;;6.06;41.38
30935;BME280;51033;42.648;23.292;2023-02-18T09:10:03;94541.34;;;6.55;41.55
30935;BME280;51033;42.648;23.292;2023-02-18T09:12:29;94532.91;;;6.43;40.52
30935;BME280;51033;42.648;23.292;2023-02-18T09:14:54;94536.66;;;6.22;40.94
30935;BME280;51033;42.648;23.292;2023-02-18T09:17:20;94536.69;;;6.02;41.12
30935;BME280;51033;42.648;23.292;2023-02-18T09:19:45;94501.03;;;5.89;40.68
30935;BME280;51033;42.648;23.292;2023-02-18T09:22:11;94504.44;;;6.05;40.91
30935;BME280;51033;42.648;23.292;2023-02-18T09:24:40;94534.16;;;6.61;40.80
30935;BME280;51033;42.648;23.292;2023-02-18T09:27:06;94510.16;;;6.47;39.72
30935;BME280;51033;42.648;23.292;2023-02-18T09:29:36;94517.19;;;6.77;40.19
30935;BME280;51033;42.648;23.292;2023-02-18T09:32:03;94496.75;;;6.28;40.15
30935;BME280;51033;42.648;23.292;2023-02-18T09:34:28;94482.25;;;6.11;40.94
30935;BME280;51033;42.648;23.292;2023-02-18T09:36:54;94496.44;;;6.50;40.53
30935;BME280;51033;42.648;23.292;2023-02-18T09:39:20;94470.06;;;6.30;40.49
30935;BME280;51033;42.648;23.292;2023-02-18T09:41:56;94463.19;;;6.29;40.37
30935;BME280;51033;42.648;23.292;2023-02-18T09:44:29;94483.38;;;6.74;39.92
30935;BME280;51033;42.648;23.292;2023-02-18T09:46:59;94495.88;;;6.53;40.10
30935;BME280;51033;42.648;23.292;2023-02-18T09:49:30;94502.38;;;6.71;40.41
30935;BME280;51033;42.648;23.292;2023-02-18T09:52:10;94460.03;;;6.81;39.37
30935;BME280;51033;42.648;23.292;2023-02-18T09:54:36;94485.00;;;7.09;39.99
30935;BME280;51033;42.648;23.292;2023-02-18T09:57:05;94504.66;;;7.37;39.36
30935;BME280;51033;42.648;23.292;2023-02-18T09:59:38;94494.25;;;7.11;39.72
30935;BME280;51033;42.648;23.292;2023-02-18T10:02:09;94492.16;;;7.08;39.24
30935;BME280;51033;42.648;23.292;2023-02-18T10:04:42;94503.53;;;7.09;39.89
30935;BME280;51033;42.648;23.292;2023-02-18T10:07:31;94487.69;;;7.43;39.41
30935;BME280;51033;42.648;23.292;2023-02-18T10:10:04;94474.69;;;7.80;38.67
30935;BME280;51033;42.648;23.292;2023-02-18T10:12:33;94481.53;;;8.10;37.88
30935;BME280;51033;42.648;23.292;2023-02-18T10:15:00;94464.63;;;7.48;39.41
30935;BME280;51033;42.648;23.292;2023-02-18T10:17:29;94474.19;;;7.73;40.59
30935;BME280;51033;42.648;23.292;2023-02-18T10:19:57;94479.31;;;7.93;38.95
30935;BME280;51033;42.648;23.292;2023-02-18T10:22:24;94484.06;;;7.96;38.53
30935;BME280;51033;42.648;23.292;2023-02-18T10:25:01;94479.84;;;8.19;38.10
30935;BME280;51033;42.648;23.292;2023-02-18T10:27:30;94486.63;;;8.30;37.53
30935;BME280;51033;42.648;23.292;2023-02-18T10:32:52;94480.34;;;8.69;36.50
30935;BME280;51033;42.648;23.292;2023-02-18T10:38:32;94468.88;;;8.73;37.19
30935;BME280;51033;42.648;23.292;2023-02-18T10:49:55;94409.19;;;10.05;34.91
30935;BME280;51033;42.648;23.292;2023-02-18T10:52:22;94414.13;;;10.53;35.74
30935;BME280;51033;42.648;23.292;2023-02-18T10:55:10;94414.31;;;10.70;35.68
30935;BME280;51033;42.648;23.292;2023-02-18T10:57:51;94416.88;;;10.48;34.03
30935;BME280;51033;42.648;23.292;2023-02-18T11:00:23;94419.22;;;10.63;33.85
30935;BME280;51033;42.648;23.292;2023-02-18T11:05:34;94393.44;;;10.22;34.51
30935;BME280;51033;42.648;23.292;2023-02-18T11:08:00;94389.50;;;10.06;34.35
30935;BME280;51033;42.648;23.292;2023-02-18T11:10:31;94389.09;;;9.99;34.61
30935;BME280;51033;42.648;23.292;2023-02-18T11:13:04;94378.59;;;10.21;34.36
30935;BME280;51033;42.648;23.292;2023-02-18T11:15:30;94383.91;;;10.21;34.20
30935;BME280;51033;42.648;23.292;2023-02-18T11:18:12;94398.94;;;10.12;34.44
30935;BME280;51033;42.648;23.292;2023-02-18T11:20:38;94385.38;;;10.00;34.36
30935;BME280;51033;42.648;23.292;2023-02-18T11:25:37;94379.84;;;10.38;37.52
30935;BME280;51033;42.648;23.292;2023-02-18T11:30:39;94357.75;;;10.64;34.00
30935;BME280;51033;42.648;23.292;2023-02-18T11:33:33;94352.16;;;10.66;33.80
30935;BME280;51033;42.648;23.292;2023-02-18T11:36:21;94351.81;;;11.03;33.82
30935;BME280;51033;42.648;23.292;2023-02-18T11:38:54;94346.47;;;11.26;32.64
30935;BME280;51033;42.648;23.292;2023-02-18T11:41:41;94329.44;;;11.04;32.96
30935;BME280;51033;42.648;23.292;2023-02-18T11:44:41;94336.97;;;10.89;34.32
30935;BME280;51033;42.648;23.292;2023-02-18T11:47:27;94334.97;;;11.39;34.05
30935;BME280;51033;42.648;23.292;2023-02-18T11:50:21;94318.78;;;11.04;32.94
30935;BME280;51033;42.648;23.292;2023-02-18T11:52:48;94304.03;;;10.98;32.91
30935;BME280;51033;42.648;23.292;2023-02-18T11:55:22;94306.66;;;11.21;32.40
30935;BME280;51033;42.648;23.292;2023-02-18T11:57:56;94304.44;;;11.76;32.72
30935;BME280;51033;42.648;23.292;2023-02-18T12:00:39;94291.34;;;11.96;33.90
30935;BME280;51033;42.648;23.292;2023-02-18T12:05:46;94289.66;;;12.09;33.39
30935;BME280;51033;42.648;23.292;2023-02-18T12:08:17;94280.28;;;12.37;32.48
30935;BME280;51033;42.648;23.292;2023-02-18T12:10:50;94272.47;;;12.58;32.86
30935;BME280;51033;42.648;23.292;2023-02-18T12:18:42;94274.63;;;13.16;31.10
30935;BME280;51033;42.648;23.292;2023-02-18T12:21:14;94280.41;;;13.27;31.32
30935;BME280;51033;42.648;23.292;2023-02-18T12:32:11;94272.50;;;13.48;30.21
30935;BME280;51033;42.648;23.292;2023-02-18T12:34:50;94272.31;;;13.53;31.38
30935;BME280;51033;42.648;23.292;2023-02-18T12:48:31;94242.25;;;13.64;30.33
30935;BME280;51033;42.648;23.292;2023-02-18T12:51:37;94232.22;;;13.61;30.57
30935;BME280;51033;42.648;23.292;2023-02-18T12:54:17;94245.53;;;13.70;30.75
30935;BME280;51033;42.648;23.292;2023-02-18T13:05:10;94243.47;;;13.75;29.80
30935;BME280;51033;42.648;23.292;2023-02-18T13:11:37;94235.16;;;13.77;29.54
30935;BME280;51033;42.648;23.292;2023-02-18T13:13:56;94224.41;;;13.86;28.89
30935;BME280;51033;42.648;23.292;2023-02-18T13:16:25;94214.06;;;13.75;29.18
30935;BME280;51033;42.648;23.292;2023-02-18T13:19:02;94223.31;;;13.87;28.83
30935;BME280;51033;42.648;23.292;2023-02-18T13:21:30;94235.75;;;14.03;28.60
30935;BME280;51033;42.648;23.292;2023-02-18T13:24:06;94217.56;;;13.97;28.06
30935;BME280;51033;42.648;23.292;2023-02-18T13:26:34;94243.94;;;14.07;28.35
30935;BME280;51033;42.648;23.292;2023-02-18T13:29:33;94237.81;;;14.06;28.39
30935;BME280;51033;42.648;23.292;2023-02-18T13:40:21;94210.16;;;14.02;28.16
30935;BME280;51033;42.648;23.292;2023-02-18T13:42:53;94234.16;;;14.11;28.24
30935;BME280;51033;42.648;23.292;2023-02-18T13:45:29;94234.25;;;13.94;28.76
30935;BME280;51033;42.648;23.292;2023-02-18T13:47:55;94235.63;;;14.00;29.02
30935;BME280;51033;42.648;23.292;2023-02-18T13:53:12;94219.16;;;14.18;28.63
30935;BME280;51033;42.648;23.292;2023-02-18T13:56:03;94224.56;;;14.10;28.08
30935;BME280;51033;42.648;23.292;2023-02-18T13:58:35;94187.59;;;14.12;28.37
30935;BME280;51033;42.648;23.292;2023-02-18T14:01:13;94202.03;;;13.90;28.48
30935;BME280;51033;42.648;23.292;2023-02-18T14:08:45;94224.13;;;14.29;28.92
30935;BME280;51033;42.648;23.292;2023-02-18T14:16:09;94225.91;;;13.95;28.50
30935;BME280;51033;42.648;23.292;2023-02-18T14:23:59;94236.47;;;13.62;30.75
30935;BME280;51033;42.648;23.292;2023-02-18T14:26:28;94212.06;;;13.26;31.13
30935;BME280;51033;42.648;23.292;2023-02-18T14:31:50;94219.06;;;12.93;32.12
30935;BME280;51033;42.648;23.292;2023-02-18T14:36:45;94233.34;;;12.97;32.18
30935;BME280;51033;42.648;23.292;2023-02-18T14:50:22;94223.66;;;12.32;33.42
30935;BME280;51033;42.648;23.292;2023-02-18T14:52:52;94221.44;;;12.42;33.34
30935;BME280;51033;42.648;23.292;2023-02-18T14:55:31;94215.19;;;12.56;33.25
30935;BME280;51033;42.648;23.292;2023-02-18T15:00:29;94206.72;;;12.62;33.32
30935;BME280;51033;42.648;23.292;2023-02-18T15:02:59;94215.63;;;12.49;33.23
30935;BME280;51033;42.648;23.292;2023-02-18T15:05:28;94201.69;;;12.43;33.38
30935;BME280;51033;42.648;23.292;2023-02-18T15:10:57;94224.56;;;12.87;32.77
30935;BME280;51033;42.648;23.292;2023-02-18T15:13:30;94216.72;;;12.82;33.15
30935;BME280;51033;42.648;23.292;2023-02-18T15:16:05;94223.63;;;12.92;32.71
30935;BME280;51033;42.648;23.292;2023-02-18T15:18:43;94223.59;;;13.01;33.43
30935;BME280;51033;42.648;23.292;2023-02-18T15:21:17;94227.66;;;13.07;33.45
30935;BME280;51033;42.648;23.292;2023-02-18T15:23:45;94216.38;;;13.10;33.08
30935;BME280;51033;42.648;23.292;2023-02-18T15:26:15;94220.19;;;12.74;33.13